createdAt,value
2023-04-05T00:01:14.471Z,100929.19
2023-04-05T00:03:41.624Z,100937.41
2023-04-05T00:06:08.659Z,100926.97
2023-04-05T00:08:35.388Z,100934.13
2023-04-05T00:11:02.112Z,100933.03
2023-04-05T00:13:28.900Z,100936.00
2023-04-05T00:15:57.740Z,100935.06
2023-04-05T00:18:25.644Z,100930.72
2023-04-05T00:20:53.134Z,100924.81
2023-04-05T00:23:20.304Z,100935.53
2023-04-05T00:25:47.484Z,100921.00
2023-04-05T00:28:14.160Z,100924.31
2023-04-05T00:30:41.019Z,100929.75
2023-04-05T00:33:09.171Z,100924.38
2023-04-05T00:35:35.962Z,100925.91
2023-04-05T00:38:02.617Z,100923.75
2023-04-05T00:40:29.295Z,100922.41
2023-04-05T00:42:56.022Z,100920.59
2023-04-05T00:45:22.843Z,100914.28
2023-04-05T00:47:49.966Z,100915.38
2023-04-05T00:50:18.148Z,100905.25
2023-04-05T00:52:45.960Z,100909.84
2023-04-05T00:55:13.167Z,100908.16
2023-04-05T00:57:40.164Z,100902.03
2023-04-05T01:00:08.313Z,100900.91
2023-04-05T01:02:41.008Z,100910.69
2023-04-05T01:05:14.407Z,100904.19
2023-04-05T01:07:49.028Z,100910.31
2023-04-05T01:10:18.050Z,100903.34
2023-04-05T01:12:45.557Z,100886.09
2023-04-05T01:15:12.178Z,100887.28
2023-04-05T01:17:38.938Z,100882.25
2023-04-05T01:20:09.412Z,100872.06
2023-04-05T01:23:12.456Z,100872.53
2023-04-05T01:25:57.516Z,100872.00
2023-04-05T01:28:44.633Z,100870.09
2023-04-05T01:31:18.677Z,100866.69
2023-04-05T01:33:56.137Z,100865.19
2023-04-05T01:36:30.682Z,100853.69
2023-04-05T01:38:58.887Z,100857.31
2023-04-05T01:41:25.688Z,100855.75
2023-04-05T01:43:52.298Z,100852.69
2023-04-05T01:46:20.473Z,100847.47
2023-04-05T01:48:47.109Z,100850.47
2023-04-05T01:51:14.027Z,100844.25
2023-04-05T01:53:40.857Z,100846.81
2023-04-05T01:56:07.674Z,100843.28
2023-04-05T01:58:34.343Z,100847.75
2023-04-05T02:01:01.005Z,100837.19
2023-04-05T02:03:29.044Z,100834.19
2023-04-05T02:05:55.731Z,100834.47
2023-04-05T02:08:23.469Z,100833.91
2023-04-05T02:10:52.489Z,100836.38
2023-04-05T02:13:19.130Z,100829.88
2023-04-05T02:15:48.379Z,100828.59
2023-04-05T02:18:15.035Z,100837.00
2023-04-05T02:20:43.183Z,100822.56
2023-04-05T02:23:09.912Z,100819.84
2023-04-05T02:25:36.595Z,100826.91
2023-04-05T02:28:03.278Z,100814.28
2023-04-05T02:30:29.958Z,100814.00
2023-04-05T02:32:56.573Z,100811.00
2023-04-05T02:35:23.564Z,100810.47
2023-04-05T02:37:51.913Z,100807.88
2023-04-05T02:40:18.664Z,100802.50
2023-04-05T02:42:45.416Z,100801.56
2023-04-05T02:45:12.149Z,100792.25
2023-04-05T02:47:38.800Z,100798.75
2023-04-05T02:50:06.679Z,100792.88
2023-04-05T02:52:33.627Z,100797.97
2023-04-05T02:55:01.598Z,100793.66
2023-04-05T02:57:28.344Z,100789.44
2023-04-05T02:59:55.186Z,100781.34
2023-04-05T03:02:21.965Z,100782.09
2023-04-05T03:04:48.663Z,100785.41
2023-04-05T03:07:15.373Z,100772.66
2023-04-05T03:09:42.078Z,100779.97
2023-04-05T03:12:10.154Z,100783.31
2023-04-05T03:14:36.840Z,100784.06
2023-04-05T03:17:03.629Z,100778.88
2023-04-05T03:19:30.484Z,100778.41
2023-04-05T03:21:57.066Z,100776.16
2023-04-05T03:24:23.852Z,100773.03
2023-04-05T03:26:50.894Z,100769.38
2023-04-05T03:29:18.984Z,100754.50
2023-04-05T03:31:45.780Z,100759.56
2023-04-05T03:34:12.482Z,100772.34
2023-04-05T03:36:39.179Z,100778.56
2023-04-05T03:39:05.830Z,100767.41
2023-04-05T03:41:32.478Z,100764.00
2023-04-05T03:43:59.449Z,100760.47
2023-04-05T03:46:27.521Z,100758.53
2023-04-05T03:48:54.321Z,100753.19
2023-04-05T03:51:21.061Z,100748.88
2023-04-05T03:53:47.771Z,100753.91
2023-04-05T03:56:14.516Z,100750.41
2023-04-05T03:58:41.296Z,100749.69
2023-04-05T04:01:08.002Z,100753.88
2023-04-05T04:03:36.087Z,100744.03
2023-04-05T04:06:02.897Z,100748.13
2023-04-05T04:08:29.624Z,100737.84
2023-04-05T04:10:56.547Z,100737.84
2023-04-05T04:13:23.352Z,100743.00
2023-04-05T04:15:50.173Z,100746.31
2023-04-05T04:18:17.119Z,100740.47
2023-04-05T04:20:45.120Z,100724.97
2023-04-05T04:23:11.813Z,100733.19
2023-04-05T04:25:39.053Z,100730.13
2023-04-05T04:28:06.479Z,100720.31
2023-04-05T04:30:33.544Z,100722.00
2023-04-05T04:33:00.553Z,100719.19
2023-04-05T04:35:28.448Z,100728.56
2023-04-05T04:37:58.081Z,100720.31
2023-04-05T04:40:27.712Z,100726.81
2023-04-05T04:42:55.106Z,100720.34
2023-04-05T04:45:21.885Z,100721.84
2023-04-05T04:47:49.455Z,100717.69
2023-04-05T04:50:16.640Z,100721.47
2023-04-05T04:52:43.442Z,100719.66
2023-04-05T04:55:12.191Z,100711.59
2023-04-05T04:57:38.836Z,100713.53
2023-04-05T05:00:07.086Z,100716.34
2023-04-05T05:02:33.772Z,100712.56
2023-04-05T05:05:01.558Z,100717.59
2023-04-05T05:07:28.950Z,100714.19
2023-04-05T05:09:55.551Z,100710.41
2023-04-05T05:12:23.928Z,100716.09
2023-04-05T05:14:50.669Z,100705.06
2023-04-05T05:17:17.316Z,100701.38
2023-04-05T05:19:46.603Z,100701.50
2023-04-05T05:22:13.201Z,100691.81
2023-04-05T05:24:39.863Z,100691.59
2023-04-05T05:27:06.520Z,100694.16
2023-04-05T05:29:34.551Z,100694.88
2023-04-05T05:32:01.231Z,100686.66
2023-04-05T05:34:27.924Z,100701.03
2023-04-05T05:36:55.249Z,100692.91
2023-04-05T05:39:22.105Z,100696.09
2023-04-05T05:41:48.823Z,100693.09
2023-04-05T05:44:15.573Z,100696.00
2023-04-05T05:46:43.710Z,100694.59
2023-04-05T05:49:10.316Z,100699.50
2023-04-05T05:51:36.944Z,100692.06
2023-04-05T05:54:03.690Z,100700.53
2023-04-05T05:56:30.309Z,100693.75
2023-04-05T05:58:57.101Z,100690.72
2023-04-05T06:01:23.749Z,100686.66
2023-04-05T06:03:52.047Z,100685.28
2023-04-05T06:06:18.762Z,100673.31
2023-04-05T06:08:45.491Z,100677.28
2023-04-05T06:11:17.813Z,100670.59
2023-04-05T06:13:44.431Z,100675.59
2023-04-05T06:16:11.174Z,100674.38
2023-04-05T06:18:37.836Z,100672.47
2023-04-05T06:21:06.046Z,100676.31
2023-04-05T06:23:32.883Z,100666.50
2023-04-05T06:25:59.604Z,100662.78
2023-04-05T06:28:26.353Z,100669.28
2023-04-05T06:30:54.106Z,100667.66
2023-04-05T06:33:20.853Z,100664.44
2023-04-05T06:35:47.566Z,100662.34
2023-04-05T06:38:15.629Z,100662.53
2023-04-05T06:40:42.496Z,100652.19
2023-04-05T06:43:09.487Z,100656.34
2023-04-05T06:45:36.247Z,100653.13
2023-04-05T06:48:03.346Z,100649.94
2023-04-05T06:50:30.116Z,100651.88
2023-04-05T06:52:56.883Z,100652.84
2023-04-05T06:55:24.922Z,100648.88
2023-04-05T06:57:51.644Z,100645.88
2023-04-05T07:00:18.786Z,100653.81
2023-04-05T07:02:45.466Z,100651.34
2023-04-05T07:05:12.199Z,100648.25
2023-04-05T07:07:40.604Z,100655.50
2023-04-05T07:10:08.280Z,100661.28
2023-04-05T07:12:40.511Z,100655.91
2023-04-05T07:15:08.366Z,100657.28
2023-04-05T07:17:35.091Z,100667.47
2023-04-05T07:20:02.295Z,100666.06
2023-04-05T07:22:28.890Z,100659.94
2023-04-05T07:24:55.690Z,100661.25
2023-04-05T07:27:23.382Z,100658.34
2023-04-05T07:29:51.450Z,100658.44
2023-04-05T07:32:18.174Z,100657.38
2023-04-05T07:34:44.961Z,100659.59
2023-04-05T07:37:11.565Z,100663.78
2023-04-05T07:39:38.173Z,100662.28
2023-04-05T07:42:05.558Z,100655.50
2023-04-05T07:44:32.216Z,100663.78
2023-04-05T07:47:00.313Z,100658.19
2023-04-05T07:49:27.495Z,100653.03
2023-04-05T07:51:55.217Z,100653.00
2023-04-05T07:54:21.965Z,100657.38
2023-04-05T07:56:48.654Z,100648.00
2023-04-05T07:59:15.394Z,100653.03
2023-04-05T08:01:42.107Z,100648.28
2023-04-05T08:04:10.211Z,100652.00
2023-04-05T08:06:37.049Z,100641.44
2023-04-05T08:09:03.852Z,100643.38
2023-04-05T08:11:30.562Z,100638.63
2023-04-05T08:13:57.376Z,100638.00
2023-04-05T08:16:24.028Z,100637.47
2023-04-05T08:18:50.701Z,100649.91
2023-04-05T08:21:18.799Z,100649.41
2023-04-05T08:23:45.618Z,100638.38
2023-04-05T08:26:12.368Z,100634.94
2023-04-05T08:28:39.144Z,100639.34
2023-04-05T08:31:05.967Z,100637.25
2023-04-05T08:33:32.691Z,100641.69
2023-04-05T08:36:04.553Z,100642.09
2023-04-05T08:38:32.683Z,100632.38
2023-04-05T08:41:08.417Z,100630.69
2023-04-05T08:43:45.736Z,100636.03
2023-04-05T08:46:15.038Z,100632.72
2023-04-05T08:48:42.092Z,100632.47
2023-04-05T08:51:09.086Z,100633.16
2023-04-05T08:53:37.313Z,100627.03
2023-04-05T08:56:04.390Z,100636.66
2023-04-05T08:58:31.983Z,100633.72
2023-04-05T09:00:59.379Z,100626.38
2023-04-05T09:03:31.533Z,100621.63
2023-04-05T09:05:59.228Z,100625.72
2023-04-05T09:08:26.136Z,100630.69
2023-04-05T09:10:54.246Z,100622.09
2023-04-05T09:13:20.880Z,100621.19
2023-04-05T09:15:48.070Z,100621.75
2023-04-05T09:18:25.447Z,100617.50
2023-04-05T09:20:56.991Z,100622.41
2023-04-05T09:23:23.635Z,100619.94
2023-04-05T09:25:50.233Z,100619.75
2023-04-05T09:28:18.272Z,100620.19
2023-04-05T09:30:46.683Z,100620.13
2023-04-05T09:33:18.911Z,100615.13
2023-04-05T09:35:49.698Z,100612.38
2023-04-05T09:38:16.382Z,100612.28
2023-04-05T09:40:44.693Z,100614.72
2023-04-05T09:43:12.309Z,100605.41
2023-04-05T09:45:41.431Z,100608.63
2023-04-05T09:48:09.170Z,100609.88
2023-04-05T09:50:36.157Z,100603.63
2023-04-05T09:53:08.056Z,100604.56
2023-04-05T09:55:35.034Z,100608.28
2023-04-05T09:58:02.357Z,100597.84
2023-04-05T10:00:30.123Z,100607.75
2023-04-05T10:02:58.320Z,100604.22
2023-04-05T10:05:27.218Z,100605.56
2023-04-05T10:07:55.747Z,100602.41
2023-04-05T10:10:23.588Z,100599.13
2023-04-05T10:12:53.466Z,100602.16
2023-04-05T10:15:20.360Z,100597.25
2023-04-05T10:17:50.457Z,100603.44
2023-04-05T10:20:20.365Z,100606.47
2023-04-05T10:23:07.412Z,100599.72
2023-04-05T10:25:46.810Z,100596.16
2023-04-05T10:28:23.032Z,100596.75
2023-04-05T10:30:52.165Z,100603.94
2023-04-05T10:33:22.102Z,100599.31
2023-04-05T10:36:00.728Z,100602.72
2023-04-05T10:38:28.759Z,100609.03
2023-04-05T10:41:02.211Z,100600.56
2023-04-05T10:43:31.880Z,100593.81
2023-04-05T10:46:00.209Z,100602.25
2023-04-05T10:48:37.271Z,100593.00
2023-04-05T10:51:06.112Z,100598.03
2023-04-05T10:53:34.133Z,100597.22
2023-04-05T10:56:02.040Z,100594.66
2023-04-05T10:58:30.319Z,100588.38
2023-04-05T11:00:58.450Z,100595.94
2023-04-05T11:03:50.699Z,100588.56
2023-04-05T11:06:31.863Z,100588.38
2023-04-05T11:09:00.434Z,100585.19
2023-04-05T11:11:27.235Z,100587.28
2023-04-05T11:13:55.102Z,100586.25
2023-04-05T11:16:38.189Z,100576.53
2023-04-05T11:19:05.018Z,100578.44
2023-04-05T11:21:34.925Z,100579.06
2023-04-05T11:24:06.682Z,100571.28
2023-04-05T11:26:52.854Z,100572.75
2023-04-05T11:29:19.863Z,100562.84
2023-04-05T11:31:59.779Z,100575.91
2023-04-05T11:34:26.881Z,100567.28
2023-04-05T11:36:54.971Z,100570.41
2023-04-05T11:39:25.575Z,100568.13
2023-04-05T11:41:58.145Z,100564.53
2023-04-05T11:44:24.867Z,100559.03
2023-04-05T11:46:51.732Z,100555.88
2023-04-05T11:49:21.291Z,100560.75
2023-04-05T11:51:50.268Z,100554.19
2023-04-05T11:54:30.172Z,100552.28
2023-04-05T11:56:56.950Z,100546.59
2023-04-05T11:59:31.463Z,100547.44
2023-04-05T12:01:59.495Z,100547.22
2023-04-05T12:04:26.147Z,100552.94
2023-04-05T12:07:17.587Z,100540.72
2023-04-05T12:09:59.984Z,100540.47
2023-04-05T12:12:26.746Z,100539.66
2023-04-05T12:14:58.919Z,100533.72
2023-04-05T12:17:42.439Z,100532.84
2023-04-05T12:20:10.594Z,100546.34
2023-04-05T12:22:37.878Z,100530.75
2023-04-05T12:25:07.891Z,100526.75
2023-04-05T12:27:34.914Z,100526.72
2023-04-05T12:30:06.531Z,100528.47
2023-04-05T12:32:36.652Z,100533.75
2023-04-05T12:35:06.838Z,100530.31
2023-04-05T12:37:34.740Z,100528.91
2023-04-05T12:40:03.379Z,100528.69
2023-04-05T12:42:33.650Z,100519.63
2023-04-05T12:45:04.749Z,100527.59
2023-04-05T12:47:33.531Z,100526.16
2023-04-05T12:50:10.655Z,100521.31
2023-04-05T12:52:37.272Z,100521.72
2023-04-05T12:55:04.455Z,100517.09
2023-04-05T12:57:32.948Z,100520.06
2023-04-05T12:59:59.727Z,100517.94
2023-04-05T13:02:27.109Z,100517.50
2023-04-05T13:04:53.896Z,100516.66
2023-04-05T13:07:20.607Z,100517.72
2023-04-05T13:09:47.258Z,100514.53
2023-04-05T13:12:13.962Z,100507.38
2023-04-05T13:14:42.109Z,100507.38
2023-04-05T13:17:08.783Z,100502.34
2023-04-05T13:19:35.515Z,100497.28
2023-04-05T13:22:02.288Z,100495.59
2023-04-05T13:24:28.891Z,100497.72
2023-04-05T13:26:55.487Z,100492.25
2023-04-05T13:29:22.459Z,100487.16
2023-04-05T13:31:50.596Z,100492.25
2023-04-05T13:34:17.332Z,100488.88
2023-04-05T13:36:44.037Z,100487.59
2023-04-05T13:39:10.761Z,100489.72
2023-04-05T13:41:37.510Z,100488.44
2023-04-05T13:44:06.448Z,100482.97
2023-04-05T13:46:34.059Z,100484.03
2023-04-05T13:49:02.099Z,100475.78
2023-04-05T13:51:28.881Z,100480.44
2023-04-05T13:53:55.561Z,100474.06
2023-04-05T13:56:22.401Z,100470.75
2023-04-05T13:58:49.179Z,100470.75
2023-04-05T14:01:15.895Z,100461.47
2023-04-05T14:03:42.807Z,100459.81
2023-04-05T14:06:11.031Z,100453.47
2023-04-05T14:08:37.677Z,100453.44
2023-04-05T14:11:04.438Z,100453.91
2023-04-05T14:13:31.221Z,100444.41
2023-04-05T14:15:57.962Z,100441.88
2023-04-05T14:18:24.620Z,100442.94
2023-04-05T14:20:51.517Z,100429.44
2023-04-05T14:23:20.270Z,100432.78
2023-04-05T14:25:47.051Z,100430.72
2023-04-05T14:28:13.736Z,100427.56
2023-04-05T14:30:40.788Z,100419.56
2023-04-05T14:33:07.726Z,100416.19
2023-04-05T14:35:34.600Z,100410.50
2023-04-05T14:38:01.390Z,100415.75
2023-04-05T14:40:29.663Z,100414.66
2023-04-05T14:42:56.424Z,100406.44
2023-04-05T14:45:23.144Z,100396.06
2023-04-05T14:47:49.977Z,100397.69
2023-04-05T14:50:16.853Z,100397.13
2023-04-05T14:52:43.574Z,100394.97
2023-04-05T14:55:10.383Z,100396.69
2023-04-05T14:57:38.575Z,100388.84
2023-04-05T15:00:06.648Z,100381.44
2023-04-05T15:02:34.165Z,100383.97
2023-04-05T15:05:01.082Z,100388.00
2023-04-05T15:07:28.074Z,100380.88
2023-04-05T15:09:54.775Z,100374.97
2023-04-05T15:12:22.485Z,100374.50
2023-04-05T15:14:50.600Z,100372.16
2023-04-05T15:17:17.500Z,100367.41
2023-04-05T15:19:44.254Z,100360.66
2023-04-05T15:22:10.953Z,100367.53
2023-04-05T15:24:37.886Z,100362.97
2023-04-05T15:27:04.723Z,100361.59
2023-04-05T15:29:32.330Z,100363.66
2023-04-05T15:32:00.859Z,100359.31
2023-04-05T15:34:28.260Z,100354.75
2023-04-05T15:36:55.151Z,100353.13
2023-04-05T15:39:22.411Z,100360.31
2023-04-05T15:41:49.759Z,100352.28
2023-04-05T15:44:16.879Z,100351.66
2023-04-05T15:46:44.810Z,100343.84
2023-04-05T15:49:14.806Z,100352.28
2023-04-05T15:51:43.781Z,100342.16
2023-04-05T15:54:10.646Z,100344.06
2023-04-05T15:56:37.858Z,100334.69
2023-04-05T15:59:04.926Z,100345.56
2023-04-05T16:01:32.014Z,100334.53
2023-04-05T16:03:58.879Z,100335.00
2023-04-05T16:06:27.160Z,100335.78
2023-04-05T16:08:53.938Z,100334.16
2023-04-05T16:11:20.776Z,100334.13
2023-04-05T16:13:47.553Z,100326.97
2023-04-05T16:16:20.534Z,100332.44
2023-04-05T16:18:54.714Z,100329.94
2023-04-05T16:21:21.483Z,100325.72
2023-04-05T16:23:49.795Z,100335.41
2023-04-05T16:26:16.449Z,100329.53
2023-04-05T16:28:43.134Z,100321.56
2023-04-05T16:31:10.091Z,100321.94
2023-04-05T16:33:36.794Z,100322.56
2023-04-05T16:36:03.817Z,100325.13
2023-04-05T16:38:30.553Z,100322.44
2023-04-05T16:40:59.255Z,100317.16
2023-04-05T16:43:25.918Z,100315.84
2023-04-05T16:45:52.834Z,100315.00
2023-04-05T16:48:19.677Z,100313.56
2023-04-05T16:50:46.460Z,100306.63
2023-04-05T16:53:13.369Z,100305.56
2023-04-05T16:55:40.210Z,100312.94
2023-04-05T16:58:08.348Z,100304.34
2023-04-05T17:00:36.439Z,100306.00
2023-04-05T17:03:03.491Z,100303.88
2023-04-05T17:05:30.283Z,100304.31
2023-04-05T17:07:57.276Z,100296.94
2023-04-05T17:10:24.083Z,100306.19
2023-04-05T17:12:50.884Z,100299.25
2023-04-05T17:15:19.124Z,100297.63
2023-04-05T17:17:45.933Z,100300.13
2023-04-05T17:20:12.910Z,100296.31
2023-04-05T17:22:39.960Z,100291.25
2023-04-05T17:25:07.582Z,100289.75
2023-04-05T17:27:34.573Z,100284.50
2023-04-05T17:30:01.300Z,100279.88
2023-04-05T17:32:29.522Z,100286.44
2023-04-05T17:34:56.360Z,100286.22
2023-04-05T17:37:23.152Z,100283.06
2023-04-05T17:39:49.860Z,100277.56
2023-04-05T17:42:16.643Z,100282.44
2023-04-05T17:44:43.584Z,100275.88
2023-04-05T17:47:10.442Z,100275.41
2023-04-05T17:49:38.568Z,100274.81
2023-04-05T17:52:05.762Z,100277.75
2023-04-05T17:54:32.446Z,100272.34
2023-04-05T17:56:59.158Z,100270.00
2023-04-05T17:59:25.955Z,100268.06
2023-04-05T18:01:52.789Z,100270.16
2023-04-05T18:04:19.825Z,100258.81
2023-04-05T18:06:48.099Z,100267.91
2023-04-05T18:09:14.867Z,100270.56
2023-04-05T18:11:41.539Z,100264.25
2023-04-05T18:14:08.543Z,100258.66
2023-04-05T18:16:35.284Z,100260.91
2023-04-05T18:19:02.039Z,100261.97
2023-04-05T18:21:28.727Z,100261.31
2023-04-05T18:23:56.892Z,100256.97
2023-04-05T18:26:23.648Z,100255.47
2023-04-05T18:28:50.363Z,100258.00
2023-04-05T18:31:17.090Z,100256.97
2023-04-05T18:33:43.781Z,100256.50
2023-04-05T18:36:11.760Z,100252.47
2023-04-05T18:38:38.563Z,100254.38
2023-04-05T18:41:06.709Z,100261.31
2023-04-05T18:43:33.494Z,100260.91
2023-04-05T18:46:00.229Z,100254.59
2023-04-05T18:48:26.942Z,100254.56
2023-04-05T18:50:54.118Z,100256.69
2023-04-05T18:53:21.129Z,100257.09
2023-04-05T18:55:50.446Z,100260.28
2023-04-05T18:58:18.560Z,100258.44
2023-04-05T19:00:45.265Z,100263.91
2023-04-05T19:03:12.101Z,100255.06
2023-04-05T19:05:38.962Z,100256.91
2023-04-05T19:08:05.840Z,100263.84
2023-04-05T19:10:32.535Z,100262.44
2023-04-05T19:12:59.332Z,100259.50
2023-04-05T19:15:27.538Z,100267.28
2023-04-05T19:17:54.332Z,100259.91
2023-04-05T19:20:21.164Z,100258.88
2023-04-05T19:22:47.822Z,100258.88
2023-04-05T19:25:14.679Z,100255.25
2023-04-05T19:27:41.407Z,100256.78
2023-04-05T19:30:09.431Z,100255.72
2023-04-05T19:32:37.678Z,100255.06
2023-04-05T19:35:06.733Z,100253.63
2023-04-05T19:37:34.144Z,100250.25
2023-04-05T19:40:01.534Z,100253.81
2023-04-05T19:42:28.272Z,100252.13
2023-04-05T19:44:55.301Z,100249.19
2023-04-05T19:47:23.551Z,100241.00
2023-04-05T19:49:53.253Z,100247.31
2023-04-05T19:52:39.432Z,100236.56
2023-04-05T19:55:26.966Z,100242.03
2023-04-05T19:57:54.458Z,100236.97
2023-04-05T20:00:36.735Z,100237.19
2023-04-05T20:03:18.414Z,100234.88
2023-04-05T20:06:13.879Z,100235.28
2023-04-05T20:08:42.457Z,100237.22
2023-04-05T20:11:13.100Z,100227.69
2023-04-05T20:13:43.371Z,100224.97
2023-04-05T20:16:12.142Z,100216.34
2023-04-05T20:18:38.991Z,100218.03
2023-04-05T20:21:06.173Z,100216.31
2023-04-05T20:23:38.525Z,100216.34
2023-04-05T20:26:06.771Z,100208.34
2023-04-05T20:28:37.472Z,100214.66
2023-04-05T20:31:07.076Z,100211.69
2023-04-05T20:33:39.972Z,100214.44
2023-04-05T20:36:06.872Z,100203.69
2023-04-05T20:38:35.015Z,100208.13
2023-04-05T20:41:01.679Z,100200.97
2023-04-05T20:43:29.902Z,100196.97
2023-04-05T20:45:58.973Z,100200.56
2023-04-05T20:48:25.769Z,100188.19
2023-04-05T20:50:52.530Z,100192.38
2023-04-05T20:53:19.296Z,100184.13
2023-04-05T20:55:47.501Z,100191.28
2023-04-05T20:58:14.371Z,100175.94
2023-04-05T21:00:41.111Z,100173.41
2023-04-05T21:03:08.995Z,100173.19
2023-04-05T21:05:35.866Z,100173.88
2023-04-05T21:08:02.635Z,100174.28
2023-04-05T21:10:29.427Z,100171.72
2023-04-05T21:12:57.581Z,100169.59
2023-04-05T21:15:24.731Z,100168.97
2023-04-05T21:17:51.415Z,100162.03
2023-04-05T21:20:18.060Z,100153.19
2023-04-05T21:22:44.860Z,100150.66
2023-04-05T21:25:11.609Z,100149.78
2023-04-05T21:27:38.490Z,100145.16
2023-04-05T21:30:08.653Z,100146.81
2023-04-05T21:32:35.477Z,100146.41
2023-04-05T21:35:02.175Z,100149.13
2023-04-05T21:37:28.933Z,100141.53
2023-04-05T21:39:55.707Z,100136.06
2023-04-05T21:42:22.800Z,100144.91
2023-04-05T21:44:49.639Z,100137.97
2023-04-05T21:47:17.761Z,100139.84
2023-04-05T21:49:45.524Z,100134.16
2023-04-05T21:52:12.224Z,100130.81
2023-04-05T21:54:38.939Z,100130.81
2023-04-05T21:57:06.345Z,100135.69
2023-04-05T21:59:33.165Z,100124.75
2023-04-05T22:02:00.618Z,100125.81
2023-04-05T22:04:28.740Z,100123.72
2023-04-05T22:06:55.654Z,100122.00
2023-04-05T22:09:22.420Z,100116.75
2023-04-05T22:11:49.961Z,100118.19
2023-04-05T22:14:16.774Z,100113.94
2023-04-05T22:16:43.547Z,100114.38
2023-04-05T22:19:10.633Z,100109.53
2023-04-05T22:21:38.862Z,100104.28
2023-04-05T22:24:06.017Z,100115.00
2023-04-05T22:26:32.885Z,100103.63
2023-04-05T22:28:59.687Z,100101.06
2023-04-05T22:31:26.463Z,100095.84
2023-04-05T22:33:53.409Z,100093.34
2023-04-05T22:36:20.415Z,100094.97
2023-04-05T22:38:48.495Z,100092.91
2023-04-05T22:41:15.240Z,100089.50
2023-04-05T22:43:41.937Z,100082.75
2023-04-05T22:46:08.835Z,100072.25
2023-04-05T22:48:35.593Z,100076.69
2023-04-05T22:51:02.403Z,100073.50
2023-04-05T22:53:29.157Z,100069.06
2023-04-05T22:55:57.646Z,100068.56
2023-04-05T22:58:24.442Z,100058.94
2023-04-05T23:00:51.422Z,100059.59
2023-04-05T23:03:18.126Z,100063.34
2023-04-05T23:05:45.934Z,100060.84
2023-04-05T23:08:12.707Z,100061.84
2023-04-05T23:10:39.374Z,100053.63
2023-04-05T23:13:07.713Z,100053.84
2023-04-05T23:15:34.520Z,100053.91
2023-04-05T23:18:01.401Z,100054.53
2023-04-05T23:20:28.154Z,100049.63
2023-04-05T23:22:54.881Z,100049.63
2023-04-05T23:25:21.835Z,100050.84
2023-04-05T23:27:48.605Z,100048.31
2023-04-05T23:30:16.773Z,100042.03
2023-04-05T23:32:43.570Z,100035.47
2023-04-05T23:35:10.378Z,100037.47
2023-04-05T23:37:37.090Z,100043.94
2023-04-05T23:40:04.588Z,100036.13
2023-04-05T23:42:31.297Z,100031.28
2023-04-05T23:44:58.015Z,100031.72
2023-04-05T23:47:26.274Z,100025.69
2023-04-05T23:49:53.032Z,100024.63
2023-04-05T23:52:19.738Z,100018.13
2023-04-05T23:54:46.442Z,100020.13
2023-04-05T23:57:13.320Z,100015.78
2023-04-05T23:59:40.132Z,100020.31
